Time;durP1;ratioP1;P1;durP2;ratioP2;P2;SDS_P1;SDS_P2;PMS_P1;PMS_P2;Temp;Humidity;BMP_temperature;BMP_pressure;BME280_temperature;BME280_humidity;BME280_pressure;Samples;Min_cycle;Max_cycle;Signal;HPM_P1;HPM_P2
2022/03/04 00:00:54;;;;;;;20.75;11.93;;;9.80;99.90;;;;;;5061777;28;20048;-79
2022/03/04 00:03:20;;;;;;;13.68;10.23;;;9.80;99.90;;;;;;5063163;28;20028;-78
2022/03/04 00:05:46;;;;;;;15.70;10.35;;;9.80;99.90;;;;;;5062172;28;20390;-78
2022/03/04 00:08:11;;;;;;;15.90;10.63;;;9.90;99.90;;;;;;5062621;28;20404;-78
2022/03/04 00:10:38;;;;;;;13.98;9.88;;;9.90;99.90;;;;;;5059744;28;20017;-78
2022/03/04 00:13:04;;;;;;;14.57;9.35;;;9.90;99.90;;;;;;5060087;28;20056;-78
2022/03/04 00:15:30;;;;;;;13.05;8.60;;;10.00;99.90;;;;;;5058863;28;20052;-78
2022/03/04 00:17:56;;;;;;;11.48;8.93;;;10.00;99.90;;;;;;5058472;28;20021;-78
2022/03/04 00:20:23;;;;;;;13.20;8.90;;;10.00;99.90;;;;;;5058092;28;20071;-78
2022/03/04 00:22:48;;;;;;;9.50;8.45;;;10.10;99.90;;;;;;5059805;28;20040;-78
2022/03/04 00:25:15;;;;;;;12.23;7.85;;;10.10;99.90;;;;;;5058221;28;20025;-78
2022/03/04 00:27:41;;;;;;;11.10;8.32;;;10.10;99.90;;;;;;5059779;28;20531;-78
2022/03/04 00:30:07;;;;;;;12.32;8.20;;;10.10;99.90;;;;;;5058273;28;20504;-78
2022/03/04 00:32:35;;;;;;;10.98;8.45;;;10.10;99.90;;;;;;5058236;28;20032;-78
2022/03/04 00:35:02;;;;;;;10.63;7.18;;;10.10;99.90;;;;;;5059097;28;20100;-78
2022/03/04 00:37:27;;;;;;;13.45;8.40;;;10.10;99.90;;;;;;5059544;28;20068;-78
2022/03/04 00:39:53;;;;;;;10.70;8.10;;;10.10;99.90;;;;;;5077974;28;20049;-79
2022/03/04 00:42:19;;;;;;;11.73;8.25;;;10.10;99.90;;;;;;5079374;28;20024;-78
2022/03/04 00:44:45;;;;;;;12.43;8.73;;;10.10;99.90;;;;;;5079442;28;20097;-78
2022/03/04 00:47:11;;;;;;;13.32;7.88;;;10.10;99.90;;;;;;5061255;28;20054;-78
2022/03/04 00:49:37;;;;;;;10.05;6.80;;;10.10;99.90;;;;;;5079089;28;20060;-78
2022/03/04 00:52:03;;;;;;;10.68;7.65;;;10.10;99.90;;;;;;5079489;28;20104;-78
2022/03/04 00:54:29;;;;;;;10.05;7.00;;;10.10;99.90;;;;;;5060443;28;20021;-78
2022/03/04 00:56:55;;;;;;;10.68;7.22;;;10.10;99.90;;;;;;5061026;28;20021;-78
2022/03/04 00:59:21;;;;;;;10.52;7.75;;;10.10;99.90;;;;;;5060858;28;20036;-78
2022/03/04 01:01:47;;;;;;;12.20;8.00;;;10.10;99.90;;;;;;5079081;28;20393;-78
2022/03/04 01:04:12;;;;;;;8.88;6.50;;;10.10;99.90;;;;;;5060757;28;20020;-78
2022/03/04 01:06:39;;;;;;;8.85;7.40;;;10.20;99.90;;;;;;5060785;28;20450;-78
2022/03/04 01:09:05;;;;;;;10.57;7.00;;;10.20;99.90;;;;;;5078641;28;20021;-78
2022/03/04 01:11:32;;;;;;;15.00;8.27;;;10.10;99.90;;;;;;5060663;28;20029;-78
2022/03/04 01:13:58;;;;;;;9.35;7.45;;;10.10;99.90;;;;;;5060893;28;20051;-78
2022/03/04 01:16:24;;;;;;;10.30;6.88;;;10.10;99.90;;;;;;5078807;28;20024;-78
2022/03/04 01:18:50;;;;;;;10.52;8.07;;;10.10;99.90;;;;;;5078286;28;20029;-78
2022/03/04 01:21:16;;;;;;;11.60;7.72;;;10.10;99.90;;;;;;5078062;28;20020;-78
2022/03/04 01:23:43;;;;;;;9.65;8.20;;;10.20;99.90;;;;;;5060418;28;20032;-78
2022/03/04 01:26:09;;;;;;;9.00;6.95;;;10.20;99.90;;;;;;5078815;28;20079;-78
2022/03/04 01:28:35;;;;;;;10.45;8.13;;;10.20;99.90;;;;;;5060129;28;20025;-78
2022/03/04 01:31:01;;;;;;;15.40;8.55;;;10.20;99.90;;;;;;5060622;28;20025;-78
2022/03/04 01:33:27;;;;;;;9.10;7.18;;;10.20;99.90;;;;;;5077973;28;20047;-78
2022/03/04 01:35:53;;;;;;;8.48;7.50;;;10.20;99.90;;;;;;5078160;28;20031;-79
2022/03/04 01:38:19;;;;;;;9.48;6.95;;;10.30;99.90;;;;;;5077994;28;20045;-78
2022/03/04 01:40:45;;;;;;;9.10;7.47;;;10.30;99.90;;;;;;5078159;28;20375;-78
2022/03/04 01:43:11;;;;;;;9.98;7.70;;;10.30;99.90;;;;;;5077647;28;20033;-78
2022/03/04 01:45:37;;;;;;;12.90;8.43;;;10.30;99.90;;;;;;5078146;28;20114;-78
2022/03/04 01:48:03;;;;;;;12.95;7.78;;;10.30;99.90;;;;;;5077821;28;20028;-78
2022/03/04 01:50:29;;;;;;;10.63;7.63;;;10.30;99.90;;;;;;5059796;28;20036;-78
2022/03/04 01:52:56;;;;;;;9.77;7.88;;;10.30;99.90;;;;;;5077935;28;20025;-78
2022/03/04 01:55:22;;;;;;;9.23;7.82;;;10.30;99.90;;;;;;5078234;28;20032;-78
2022/03/04 01:57:48;;;;;;;10.32;8.60;;;10.40;99.90;;;;;;5077919;28;20024;-78
2022/03/04 02:00:14;;;;;;;10.88;8.93;;;10.40;99.90;;;;;;5059863;28;20035;-78
2022/03/04 02:02:42;;;;;;;13.13;8.70;;;10.40;99.90;;;;;;5077700;28;20017;-78
2022/03/04 02:05:12;;;;;;;10.82;8.40;;;10.40;99.90;;;;;;5059791;28;20427;-78
2022/03/04 02:07:38;;;;;;;8.90;7.90;;;10.40;99.90;;;;;;5077623;28;20021;-78
2022/03/04 02:10:04;;;;;;;11.27;8.65;;;10.40;99.90;;;;;;5077774;28;20115;-78
2022/03/04 02:12:30;;;;;;;8.70;6.65;;;10.40;99.90;;;;;;5077300;28;20027;-78
2022/03/04 02:14:56;;;;;;;9.90;6.85;;;10.40;99.90;;;;;;5059563;28;20025;-77
2022/03/04 02:17:22;;;;;;;7.47;6.65;;;10.40;99.90;;;;;;5077448;28;20025;-78
2022/03/04 02:19:54;;;;;;;6.80;6.10;;;10.40;99.90;;;;;;5059156;28;20036;-78
2022/03/04 02:22:20;;;;;;;7.47;5.80;;;10.40;99.90;;;;;;5059464;28;20028;-78
2022/03/04 02:24:46;;;;;;;4.97;4.07;;;10.30;99.90;;;;;;5077447;28;20064;-78
2022/03/04 02:27:12;;;;;;;4.53;3.17;;;10.30;99.90;;;;;;5059248;28;20032;-78
2022/03/04 02:29:38;;;;;;;3.25;2.53;;;10.40;99.90;;;;;;5077603;28;20033;-78
2022/03/04 02:32:05;;;;;;;3.63;3.20;;;10.30;99.90;;;;;;5058422;28;20496;-78
2022/03/04 02:34:31;;;;;;;3.17;2.80;;;10.30;99.90;;;;;;5059185;28;20480;-77
2022/03/04 02:36:57;;;;;;;2.38;2.17;;;10.30;99.90;;;;;;5077446;28;20075;-77
2022/03/04 02:39:23;;;;;;;2.20;2.00;;;10.30;99.90;;;;;;5077163;28;20412;-78
2022/03/04 02:41:49;;;;;;;2.17;1.98;;;10.20;99.90;;;;;;5077037;28;20044;-78
2022/03/04 02:44:15;;;;;;;2.00;1.80;;;10.20;99.90;;;;;;5077344;28;20162;-78
2022/03/04 02:46:41;;;;;;;2.58;1.95;;;10.20;99.90;;;;;;5077012;28;20051;-78
2022/03/04 02:49:09;;;;;;;2.22;1.88;;;10.20;99.90;;;;;;5058832;28;20021;-78
2022/03/04 02:51:35;;;;;;;2.95;2.10;;;10.10;99.90;;;;;;5059272;28;20392;-78
2022/03/04 02:54:01;;;;;;;1.80;1.70;;;10.10;99.90;;;;;;5059056;28;20032;-79
2022/03/04 02:56:27;;;;;;;1.70;1.60;;;10.10;99.90;;;;;;5076968;28;20070;-78
2022/03/04 02:58:53;;;;;;;1.98;1.83;;;10.10;99.90;;;;;;5077125;28;20029;-78
2022/03/04 03:01:19;;;;;;;2.05;1.73;;;10.10;99.90;;;;;;5058821;28;20027;-78
2022/03/04 03:03:45;;;;;;;2.90;1.90;;;10.00;99.90;;;;;;5058652;28;20040;-78
2022/03/04 03:06:11;;;;;;;1.90;1.80;;;10.00;99.90;;;;;;5077002;28;20028;-78
2022/03/04 03:08:37;;;;;;;2.22;1.80;;;10.00;99.90;;;;;;5076862;28;20058;-78
2022/03/04 03:11:03;;;;;;;1.92;1.83;;;10.00;99.90;;;;;;5058827;28;20020;-78
2022/03/04 03:13:29;;;;;;;2.30;2.10;;;9.90;99.90;;;;;;5058697;28;20036;-78
2022/03/04 03:15:55;;;;;;;2.30;2.10;;;10.00;99.90;;;;;;5076701;28;20013;-77
2022/03/04 03:18:21;;;;;;;2.30;2.10;;;9.90;99.90;;;;;;5076867;28;20028;-77
2022/03/04 03:20:47;;;;;;;2.25;1.95;;;9.90;99.90;;;;;;5058553;28;20497;-78
2022/03/04 03:23:13;;;;;;;2.25;2.05;;;9.90;99.90;;;;;;5058756;28;20115;-78
2022/03/04 03:25:38;;;;;;;2.15;1.95;;;9.90;99.90;;;;;;5058440;28;20033;-78
2022/03/04 03:28:04;;;;;;;4.53;1.95;;;9.90;99.90;;;;;;5058587;28;20028;-78
2022/03/04 03:30:31;;;;;;;2.28;2.08;;;9.80;99.90;;;;;;5058713;28;20027;-78
2022/03/04 03:32:57;;;;;;;2.55;2.20;;;9.80;99.90;;;;;;5076781;28;20017;-78
2022/03/04 03:35:24;;;;;;;6.13;2.00;;;9.80;99.90;;;;;;5076450;28;20020;-78
2022/03/04 03:37:50;;;;;;;2.88;2.38;;;9.80;99.90;;;;;;5076541;28;20555;-78
2022/03/04 03:40:16;;;;;;;2.33;2.13;;;9.80;99.90;;;;;;5058477;28;20021;-78
2022/03/04 03:42:43;;;;;;;3.88;2.17;;;9.80;99.90;;;;;;5076593;28;20054;-77
2022/03/04 03:45:10;;;;;;;2.15;1.95;;;9.80;99.90;;;;;;5062155;28;20028;-78
2022/03/04 03:47:38;;;;;;;5.20;2.50;;;9.80;99.90;;;;;;5080308;28;20074;-78
2022/03/04 03:50:06;;;;;;;2.25;2.05;;;9.80;99.90;;;;;;5079919;28;20086;-78
2022/03/04 03:52:32;;;;;;;2.72;2.15;;;9.70;99.90;;;;;;5062274;28;20024;-78
2022/03/04 03:54:58;;;;;;;3.97;2.28;;;9.70;99.90;;;;;;5062182;28;20070;-78
2022/03/04 03:57:27;;;;;;;3.03;2.50;;;9.70;99.90;;;;;;5080125;28;20095;-78
2022/03/04 03:59:52;;;;;;;3.83;2.42;;;9.70;99.90;;;;;;5062014;28;20043;-78
2022/03/04 04:02:18;;;;;;;4.78;2.50;;;9.70;99.90;;;;;;5080038;28;20017;-78
2022/03/04 04:04:46;;;;;;;3.88;2.25;;;9.70;99.90;;;;;;5061980;28;20393;-78
2022/03/04 04:07:12;;;;;;;3.40;2.20;;;9.60;99.90;;;;;;5061261;28;20085;-78
2022/03/04 04:09:39;;;;;;;2.80;2.50;;;9.70;99.90;;;;;;5061724;28;20024;-78
2022/03/04 04:12:05;;;;;;;5.20;2.80;;;9.60;99.90;;;;;;5061782;28;20021;-78
2022/03/04 04:14:32;;;;;;;2.75;2.50;;;9.60;99.90;;;;;;5061718;28;20025;-77
2022/03/04 04:16:58;;;;;;;3.10;2.78;;;9.60;99.90;;;;;;5079809;28;20104;-79
2022/03/04 04:19:24;;;;;;;3.40;2.70;;;9.60;99.90;;;;;;5061581;28;20493;-78
2022/03/04 04:21:51;;;;;;;3.00;2.42;;;9.60;99.90;;;;;;5061676;28;20032;-78
2022/03/04 04:24:17;;;;;;;3.13;2.83;;;9.60;99.90;;;;;;5061542;28;20059;-78
2022/03/04 04:26:44;;;;;;;3.63;2.55;;;9.60;99.90;;;;;;5079573;28;20039;-78
2022/03/04 04:29:10;;;;;;;2.53;2.33;;;9.60;99.90;;;;;;5079422;28;20028;-78
2022/03/04 04:31:36;;;;;;;3.55;2.80;;;9.60;99.90;;;;;;5079530;28;20017;-77
2022/03/04 04:34:02;;;;;;;4.60;2.78;;;9.60;99.90;;;;;;5061098;28;20025;-78
2022/03/04 04:36:28;;;;;;;3.20;2.90;;;9.60;99.90;;;;;;5079320;28;20092;-78
2022/03/04 04:38:54;;;;;;;3.40;3.10;;;9.60;99.90;;;;;;5061395;28;20094;-78
2022/03/04 04:41:21;;;;;;;5.15;3.35;;;9.50;99.90;;;;;;5079438;28;20028;-78
2022/03/04 04:43:47;;;;;;;3.97;3.03;;;9.60;99.90;;;;;;5061048;28;20047;-78
2022/03/04 04:46:13;;;;;;;5.93;3.53;;;9.50;99.90;;;;;;5061285;28;20021;-78
2022/03/04 04:48:39;;;;;;;6.38;4.00;;;9.50;99.90;;;;;;5078798;28;20051;-78
2022/03/04 04:51:05;;;;;;;5.70;4.03;;;9.50;99.90;;;;;;5061198;28;20496;-78
2022/03/04 04:53:32;;;;;;;4.55;4.03;;;9.50;99.90;;;;;;5061460;28;20036;-78
2022/03/04 04:55:58;;;;;;;11.70;5.18;;;9.50;99.90;;;;;;5078280;28;20409;-78
2022/03/04 04:58:24;;;;;;;5.28;4.75;;;9.50;99.90;;;;;;5079224;28;20029;-77
2022/03/04 05:00:54;;;;;;;5.70;5.10;;;9.50;99.90;;;;;;5060935;28;20503;-78
2022/03/04 05:03:24;;;;;;;6.50;4.78;;;9.50;99.90;;;;;;5079024;28;20033;-79
2022/03/04 05:05:51;;;;;;;7.20;5.55;;;9.50;99.90;;;;;;5078201;28;20036;-78
2022/03/04 05:08:18;;;;;;;8.88;5.53;;;9.50;99.90;;;;;;5078943;28;20039;-78
2022/03/04 05:10:44;;;;;;;5.72;4.82;;;9.50;99.90;;;;;;5061062;28;20025;-78
2022/03/04 05:13:11;;;;;;;7.75;5.88;;;9.50;99.90;;;;;;5078747;28;20025;-78
2022/03/04 05:15:37;;;;;;;7.20;6.50;;;9.50;99.90;;;;;;5078943;28;20377;-78
2022/03/04 05:18:03;;;;;;;6.15;5.40;;;9.50;99.90;;;;;;5078965;28;20062;-78
2022/03/04 05:20:30;;;;;;;6.97;5.65;;;9.60;99.90;;;;;;5078252;28;20021;-78
2022/03/04 05:22:56;;;;;;;6.50;5.78;;;9.60;99.90;;;;;;5060511;28;20443;-78
2022/03/04 05:25:22;;;;;;;7.43;6.55;;;9.60;99.90;;;;;;5078367;28;20028;-78
2022/03/04 05:27:47;;;;;;;6.78;5.65;;;9.60;99.90;;;;;;5078455;28;20028;-78
2022/03/04 05:30:14;;;;;;;7.05;6.35;;;9.60;99.90;;;;;;5078377;28;20398;-78
2022/03/04 05:32:40;;;;;;;8.27;6.45;;;9.60;99.90;;;;;;5060673;28;20025;-78
2022/03/04 05:35:06;;;;;;;8.00;7.20;;;9.60;99.90;;;;;;5078106;28;20104;-77
2022/03/04 05:37:33;;;;;;;7.20;6.50;;;9.60;99.90;;;;;;5059645;28;20025;-78
2022/03/04 05:39:59;;;;;;;7.30;6.47;;;9.60;99.90;;;;;;5060020;28;20040;-77
2022/03/04 05:42:25;;;;;;;7.15;6.35;;;9.70;99.90;;;;;;5078116;28;20025;-78
2022/03/04 05:44:51;;;;;;;8.18;6.80;;;9.70;99.90;;;;;;5060083;28;20028;-78
2022/03/04 05:47:17;;;;;;;11.57;7.63;;;9.70;99.90;;;;;;5060061;28;20028;-78
2022/03/04 05:49:43;;;;;;;13.48;7.10;;;9.70;99.90;;;;;;5077678;28;20028;-78
2022/03/04 05:52:09;;;;;;;6.82;5.93;;;9.70;99.90;;;;;;5078050;28;20107;-77
2022/03/04 05:54:36;;;;;;;7.78;6.78;;;9.70;99.90;;;;;;5059631;28;20035;-77
2022/03/04 05:57:02;;;;;;;8.23;7.05;;;9.80;99.90;;;;;;5059852;28;20020;-77
2022/03/04 05:59:28;;;;;;;7.38;6.68;;;9.80;99.90;;;;;;5059694;28;20036;-78
2022/03/04 06:01:54;;;;;;;9.57;8.57;;;9.80;99.90;;;;;;5077898;28;20024;-77
2022/03/04 06:04:20;;;;;;;7.30;6.43;;;9.80;99.90;;;;;;5077468;28;20396;-77
2022/03/04 06:06:46;;;;;;;8.65;7.75;;;9.70;99.90;;;;;;5077669;28;20481;-78
2022/03/04 06:09:12;;;;;;;8.73;7.80;;;9.80;99.90;;;;;;5077488;28;20025;-77
2022/03/04 06:11:37;;;;;;;12.23;8.25;;;9.80;99.90;;;;;;5059506;28;20223;-78
2022/03/04 06:14:03;;;;;;;8.63;7.53;;;9.80;99.90;;;;;;5077508;28;20036;-77
2022/03/04 06:16:29;;;;;;;7.45;6.65;;;9.70;99.90;;;;;;5077666;28;20036;-78
2022/03/04 06:18:55;;;;;;;8.07;7.03;;;9.70;99.90;;;;;;5077114;28;20028;-77
2022/03/04 06:21:22;;;;;;;8.65;7.75;;;9.70;99.90;;;;;;5077404;28;20036;-78
2022/03/04 06:23:48;;;;;;;9.20;8.18;;;9.70;99.90;;;;;;5059378;28;20020;-77
2022/03/04 06:26:13;;;;;;;9.65;7.45;;;9.70;99.90;;;;;;5059430;28;20078;-78
2022/03/04 06:28:40;;;;;;;9.23;8.25;;;9.70;99.90;;;;;;5077080;28;20029;-78
2022/03/04 06:31:06;;;;;;;8.10;7.28;;;9.70;99.90;;;;;;5077695;28;20036;-77
2022/03/04 06:33:33;;;;;;;8.18;7.38;;;9.60;99.90;;;;;;5076034;28;20020;-77
2022/03/04 06:36:11;;;;;;;9.20;7.70;;;9.70;99.90;;;;;;5077327;28;20496;-78
2022/03/04 06:38:42;;;;;;;8.50;7.07;;;9.70;99.90;;;;;;5077262;28;20064;-78
2022/03/04 06:41:10;;;;;;;10.60;8.48;;;9.70;99.90;;;;;;5059216;28;20397;-78
2022/03/04 06:43:36;;;;;;;9.48;7.57;;;9.70;99.90;;;;;;5077037;28;20020;-77
2022/03/04 06:46:03;;;;;;;8.60;7.25;;;9.70;99.90;;;;;;5077228;28;20052;-77
2022/03/04 06:48:29;;;;;;;8.20;7.05;;;9.60;99.90;;;;;;5076722;28;20135;-77
2022/03/04 06:50:55;;;;;;;7.80;6.82;;;9.60;99.90;;;;;;5077186;28;20027;-77
2022/03/04 06:53:21;;;;;;;8.02;6.82;;;9.60;99.90;;;;;;5059059;28;20025;-77
2022/03/04 06:55:47;;;;;;;8.65;6.95;;;9.50;99.90;;;;;;5077187;28;20052;-77
2022/03/04 06:58:13;;;;;;;8.23;7.35;;;9.50;99.90;;;;;;5059071;28;20025;-77
2022/03/04 07:00:41;;;;;;;7.38;6.65;;;9.50;99.90;;;;;;5058938;28;20115;-78
2022/03/04 07:03:07;;;;;;;7.45;6.65;;;9.50;99.90;;;;;;5058892;28;20440;-78
2022/03/04 07:05:33;;;;;;;10.48;7.88;;;9.50;99.90;;;;;;5076713;28;20384;-78
2022/03/04 07:07:59;;;;;;;11.65;9.23;;;9.50;99.90;;;;;;5058815;28;20028;-77
2022/03/04 07:10:26;;;;;;;7.93;7.13;;;9.50;99.90;;;;;;5059523;28;20052;-78
2022/03/04 07:12:52;;;;;;;8.98;8.07;;;9.50;99.90;;;;;;5058668;28;20024;-77
2022/03/04 07:15:19;;;;;;;10.45;8.32;;;9.50;99.90;;;;;;5076852;28;20146;-77
2022/03/04 07:17:46;;;;;;;8.98;8.13;;;9.50;99.90;;;;;;5059067;28;20020;-77
2022/03/04 07:20:13;;;;;;;9.25;8.27;;;9.50;99.90;;;;;;5061853;28;20032;-78
2022/03/04 07:22:40;;;;;;;12.18;8.15;;;9.50;99.90;;;;;;5049830;28;20020;-78
2022/03/04 07:25:08;;;;;;;9.18;8.27;;;9.50;99.90;;;;;;5062929;28;20024;-76
2022/03/04 07:27:34;;;;;;;10.52;8.38;;;9.50;99.90;;;;;;5063275;28;20527;-76
2022/03/04 07:30:03;;;;;;;9.30;8.32;;;9.50;99.90;;;;;;5062895;28;20031;-77
2022/03/04 07:32:29;;;;;;;9.15;7.95;;;9.50;99.90;;;;;;5079400;28;20074;-77
2022/03/04 07:34:55;;;;;;;8.38;7.47;;;9.50;99.90;;;;;;5062456;28;20020;-77
2022/03/04 07:37:20;;;;;;;8.93;7.38;;;9.50;99.90;;;;;;5062536;28;20119;-76
2022/03/04 07:39:46;;;;;;;8.85;7.93;;;9.40;99.90;;;;;;5058532;28;20091;-77
2022/03/04 07:42:12;;;;;;;9.02;7.35;;;9.40;99.90;;;;;;5060373;28;20505;-78
2022/03/04 07:44:38;;;;;;;8.55;7.68;;;9.40;99.90;;;;;;5060528;28;20178;-77
2022/03/04 07:47:04;;;;;;;12.65;8.13;;;9.40;99.90;;;;;;5058856;28;20033;-77
2022/03/04 07:49:30;;;;;;;8.52;7.38;;;9.40;99.90;;;;;;5059958;28;20504;-77
2022/03/04 07:51:56;;;;;;;7.80;7.03;;;9.40;99.90;;;;;;5060353;28;20021;-77
2022/03/04 07:54:22;;;;;;;8.00;7.03;;;9.40;99.90;;;;;;5059001;28;20033;-78
2022/03/04 07:56:48;;;;;;;8.65;6.70;;;9.40;99.90;;;;;;5058019;28;20055;-77
2022/03/04 07:59:13;;;;;;;8.20;6.85;;;9.40;99.90;;;;;;5059370;28;20025;-77
2022/03/04 08:01:39;;;;;;;8.23;7.40;;;9.40;99.90;;;;;;5058505;28;20027;-77
2022/03/04 08:04:06;;;;;;;9.68;7.30;;;9.40;99.90;;;;;;5059319;28;20025;-77
2022/03/04 08:06:32;;;;;;;12.20;7.63;;;9.40;99.90;;;;;;5059463;28;20494;-76
2022/03/04 08:08:58;;;;;;;12.32;7.40;;;9.40;99.90;;;;;;5059264;28;20048;-75
2022/03/04 08:11:24;;;;;;;9.73;7.72;;;9.40;99.90;;;;;;5059310;28;20016;-76
2022/03/04 08:13:49;;;;;;;9.23;7.32;;;9.40;99.90;;;;;;5058061;28;20032;-76
2022/03/04 08:16:15;;;;;;;11.25;7.28;;;9.40;99.90;;;;;;5059595;28;20515;-76
2022/03/04 08:18:41;;;;;;;8.65;7.03;;;9.40;99.90;;;;;;5059630;28;20036;-76
2022/03/04 08:21:08;;;;;;;9.25;7.70;;;9.40;99.90;;;;;;5059602;28;20370;-79
2022/03/04 08:23:33;;;;;;;8.77;7.53;;;9.40;99.90;;;;;;5059525;28;20060;-76
2022/03/04 08:26:03;;;;;;;7.18;6.47;;;9.40;99.90;;;;;;5059594;28;20036;-77
2022/03/04 08:28:30;;;;;;;9.05;5.78;;;9.40;99.90;;;;;;5059476;28;20024;-77
2022/03/04 08:30:56;;;;;;;7.85;5.70;;;9.40;99.90;;;;;;5058395;28;20025;-77
2022/03/04 08:33:24;;;;;;;9.15;6.72;;;9.40;99.90;;;;;;5057881;28;20035;-77
2022/03/04 08:35:50;;;;;;;6.65;5.95;;;9.40;99.90;;;;;;5059829;28;20032;-77
2022/03/04 08:38:16;;;;;;;6.68;5.13;;;9.50;99.90;;;;;;5064642;28;20056;-77
2022/03/04 08:40:42;;;;;;;10.00;4.88;;;9.40;99.90;;;;;;5061417;28;20035;-77
2022/03/04 08:43:08;;;;;;;4.20;3.80;;;9.40;99.90;;;;;;5077974;28;20062;-77
2022/03/04 08:45:34;;;;;;;4.68;4.22;;;9.40;99.90;;;;;;5079522;28;20040;-77
2022/03/04 08:48:06;;;;;;;3.75;3.35;;;9.50;99.90;;;;;;5078615;28;20124;-76
2022/03/04 08:50:35;;;;;;;4.25;3.15;;;9.50;99.90;;;;;;5079384;28;20021;-77
2022/03/04 08:53:01;;;;;;;3.90;3.35;;;9.50;99.90;;;;;;5079130;28;20021;-77
2022/03/04 08:55:30;;;;;;;3.95;3.28;;;9.50;99.90;;;;;;5079365;28;20025;-77
2022/03/04 08:57:57;;;;;;;3.35;3.00;;;9.50;99.90;;;;;;5078902;28;20056;-77
2022/03/04 09:00:23;;;;;;;3.25;2.92;;;9.50;99.90;;;;;;5060765;28;20435;-76
2022/03/04 09:02:49;;;;;;;3.47;2.80;;;9.40;99.90;;;;;;5079185;28;20386;-76
2022/03/04 09:05:15;;;;;;;3.28;2.90;;;9.40;99.90;;;;;;5060954;28;20500;-76
2022/03/04 09:07:41;;;;;;;2.90;2.60;;;9.40;99.90;;;;;;5078891;28;20029;-75
2022/03/04 09:10:08;;;;;;;2.85;2.60;;;9.40;99.90;;;;;;5061114;28;20026;-77
2022/03/04 09:12:34;;;;;;;3.17;2.88;;;9.40;99.90;;;;;;5078503;28;20072;-75
2022/03/04 09:15:00;;;;;;;3.40;3.10;;;9.40;99.90;;;;;;5078933;28;20017;-76
2022/03/04 09:17:25;;;;;;;2.75;2.55;;;9.40;99.90;;;;;;5060615;28;20572;-77
2022/03/04 09:19:51;;;;;;;4.43;2.88;;;9.40;99.90;;;;;;5078354;28;20028;-77
2022/03/04 09:22:17;;;;;;;2.92;2.67;;;9.40;99.90;;;;;;5078544;28;20025;-77
2022/03/04 09:24:43;;;;;;;3.53;3.22;;;9.40;99.90;;;;;;5078612;28;20031;-77
2022/03/04 09:27:10;;;;;;;3.58;3.20;;;9.40;99.90;;;;;;5078552;28;20039;-76
2022/03/04 09:29:36;;;;;;;3.60;2.95;;;9.30;99.90;;;;;;5060494;28;20032;-77
2022/03/04 09:32:02;;;;;;;5.38;3.13;;;9.40;99.90;;;;;;5078346;28;20032;-77
2022/03/04 09:34:28;;;;;;;3.30;3.00;;;9.40;99.90;;;;;;5060260;28;20081;-78
2022/03/04 09:36:54;;;;;;;3.40;2.97;;;9.40;99.90;;;;;;5078390;28;20021;-77
2022/03/04 09:39:19;;;;;;;3.80;3.05;;;9.40;99.90;;;;;;5078384;28;20052;-77
2022/03/04 09:41:46;;;;;;;2.83;2.60;;;9.40;99.90;;;;;;5061852;28;20028;-77
2022/03/04 09:44:13;;;;;;;2.72;2.53;;;9.50;99.90;;;;;;5071313;28;20028;-77
2022/03/04 09:46:42;;;;;;;2.50;2.30;;;9.50;99.90;;;;;;5077583;28;20476;-76
2022/03/04 09:49:09;;;;;;;3.05;2.75;;;9.50;99.90;;;;;;5059057;28;20032;-77
2022/03/04 09:51:36;;;;;;;3.10;2.80;;;9.40;99.90;;;;;;5058435;28;20070;-77
2022/03/04 09:54:02;;;;;;;3.63;2.45;;;9.50;99.90;;;;;;5051682;28;20033;-77
2022/03/04 09:56:28;;;;;;;6.38;3.28;;;9.50;99.90;;;;;;5057187;28;20493;-76
2022/03/04 09:58:54;;;;;;;3.28;2.42;;;9.50;99.90;;;;;;5077679;28;20025;-77
2022/03/04 10:01:20;;;;;;;4.00;2.75;;;9.50;99.90;;;;;;5077756;28;20017;-77
2022/03/04 10:03:50;;;;;;;2.58;2.35;;;9.50;99.90;;;;;;5077632;28;20036;-78
2022/03/04 10:06:18;;;;;;;2.53;2.33;;;9.50;99.90;;;;;;5059149;28;20031;-77
2022/03/04 10:08:46;;;;;;;3.05;2.72;;;9.40;99.90;;;;;;5076153;28;20413;-77
2022/03/04 10:11:22;;;;;;;3.38;2.50;;;9.40;99.90;;;;;;5076290;28;20054;-77
2022/03/04 10:13:54;;;;;;;3.17;2.88;;;9.50;99.90;;;;;;5043625;28;20032;-77
2022/03/04 10:16:28;;;;;;;5.45;3.40;;;9.50;99.90;;;;;;5042500;28;20493;-77
2022/03/04 10:19:14;;;;;;;4.00;2.58;;;9.50;99.90;;;;;;5074778;28;20013;-79
2022/03/04 10:21:54;;;;;;;4.32;3.10;;;9.50;99.90;;;;;;5058740;28;20032;-78
2022/03/04 10:24:21;;;;;;;;;;;9.50;99.90;;;;;;5058775;28;20434;-77
2022/03/04 10:27:09;;;;;;;6.43;5.75;;;9.50;99.90;;;;;;5076812;28;20327;-76
2022/03/04 10:29:38;;;;;;;3.25;2.95;;;9.50;99.90;;;;;;5075545;28;20047;-77
2022/03/04 10:32:26;;;;;;;4.40;2.65;;;9.50;99.90;;;;;;5076458;28;20111;-77
2022/03/04 10:35:01;;;;;;;4.95;4.53;;;9.50;99.90;;;;;;5076291;28;20024;-78
2022/03/04 10:37:54;;;;;;;4.35;2.90;;;9.50;99.90;;;;;;5057048;28;20027;-77
2022/03/04 10:40:24;;;;;;;3.30;2.97;;;9.50;99.90;;;;;;5058395;28;20119;-77
2022/03/04 10:43:00;;;;;;;2.85;2.63;;;9.50;99.90;;;;;;5075827;28;20047;-77
2022/03/04 10:45:40;;;;;;;2.45;2.25;;;9.50;99.90;;;;;;5075868;28;20048;-78
2022/03/04 10:48:19;;;;;;;3.65;2.50;;;9.50;99.90;;;;;;5055854;28;20024;-76
2022/03/04 10:50:57;;;;;;;3.20;2.60;;;9.50;99.90;;;;;;5076327;28;20485;-77
2022/03/04 10:53:29;;;;;;;2.65;2.45;;;9.50;99.90;;;;;;5057806;28;20020;-77
2022/03/04 10:56:05;;;;;;;2.80;2.60;;;9.50;99.90;;;;;;5075939;28;20031;-77
2022/03/04 10:58:35;;;;;;;5.38;2.65;;;9.50;99.90;;;;;;5069823;28;20024;-77
2022/03/04 11:01:10;;;;;;;3.20;2.90;;;9.50;99.90;;;;;;5049132;28;20050;-76
2022/03/04 11:03:37;;;;;;;3.70;2.38;;;9.50;99.90;;;;;;5054371;28;20028;-77
2022/03/04 11:06:09;;;;;;;3.15;2.40;;;9.50;99.90;;;;;;5058190;28;20054;-77
2022/03/04 11:08:38;;;;;;;3.05;2.70;;;9.50;99.90;;;;;;5058127;28;20392;-77
2022/03/04 11:11:05;;;;;;;4.45;3.00;;;9.60;99.90;;;;;;5053749;28;20057;-77
2022/03/04 11:13:34;;;;;;;7.90;5.55;;;9.70;99.90;;;;;;5060117;28;20021;-79
2022/03/04 11:16:01;;;;;;;3.80;3.40;;;9.60;99.90;;;;;;5064310;28;20389;-77
2022/03/04 11:18:27;;;;;;;3.38;2.90;;;9.60;99.90;;;;;;5047750;28;20036;-76
2022/03/04 11:20:55;;;;;;;2.78;2.40;;;9.60;99.90;;;;;;5075853;28;20025;-77
2022/03/04 11:23:27;;;;;;;2.63;2.20;;;9.60;99.90;;;;;;5058186;28;20017;-76
2022/03/04 11:25:59;;;;;;;2.42;2.22;;;9.60;99.90;;;;;;5058089;28;20017;-77
2022/03/04 11:28:40;;;;;;;3.58;2.60;;;9.60;99.90;;;;;;5074434;28;20036;-77
2022/03/04 11:31:08;;;;;;;2.47;2.28;;;9.50;99.90;;;;;;5069930;28;20090;-76
2022/03/04 11:33:35;;;;;;;2.90;2.60;;;9.50;99.90;;;;;;5071630;28;20028;-77
2022/03/04 11:36:09;;;;;;;4.43;2.50;;;9.50;99.90;;;;;;5076019;28;20107;-78
2022/03/04 11:38:44;;;;;;;2.60;2.40;;;9.50;99.90;;;;;;5077324;28;20101;-77
2022/03/04 11:41:11;;;;;;;2.80;2.60;;;9.40;99.90;;;;;;5073311;28;20051;-76
2022/03/04 11:43:48;;;;;;;2.90;2.67;;;9.40;99.90;;;;;;5076130;28;20086;-76
2022/03/04 11:46:41;;;;;;;2.55;2.35;;;9.40;99.90;;;;;;5077039;28;20025;-77
2022/03/04 11:49:28;;;;;;;2.30;2.10;;;9.40;99.90;;;;;;5070666;28;20071;-78
2022/03/04 11:52:10;;;;;;;2.30;2.10;;;9.40;99.90;;;;;;5063117;28;20088;-78
2022/03/04 11:54:44;;;;;;;2.72;2.50;;;9.30;99.90;;;;;;5057794;28;20404;-77
2022/03/04 11:57:25;;;;;;;2.78;2.58;;;9.30;99.90;;;;;;5057708;28;20033;-78
2022/03/04 12:00:21;;;;;;;2.35;2.15;;;9.30;99.90;;;;;;5075701;28;20477;-78
2022/03/04 12:02:55;;;;;;;3.70;2.90;;;9.20;99.90;;;;;;5070312;28;20529;-78
2022/03/04 12:05:22;;;;;;;2.40;2.20;;;9.20;99.90;;;;;;5060206;28;20550;-78
2022/03/04 12:07:55;;;;;;;2.60;2.40;;;9.20;99.90;;;;;;5061756;28;20032;-78
2022/03/04 12:10:24;;;;;;;3.42;2.63;;;9.20;99.90;;;;;;5079974;28;20082;-77
2022/03/04 12:13:04;;;;;;;2.60;2.40;;;9.20;99.90;;;;;;5061024;28;20021;-78
2022/03/04 12:15:32;;;;;;;3.95;3.50;;;9.20;99.90;;;;;;5061696;28;20016;-78
2022/03/04 12:18:23;;;;;;;3.17;2.88;;;9.20;99.90;;;;;;5079038;28;20017;-78
2022/03/04 12:21:13;;;;;;;3.03;2.67;;;9.20;99.90;;;;;;5079128;28;20032;-77
2022/03/04 12:23:42;;;;;;;4.53;2.40;;;9.20;99.90;;;;;;5079606;28;20028;-78
2022/03/04 12:26:11;;;;;;;3.15;2.85;;;9.20;99.90;;;;;;5061386;28;20032;-77
2022/03/04 12:28:44;;;;;;;6.22;3.80;;;9.30;99.90;;;;;;5078854;28;20021;-78
2022/03/04 12:31:12;;;;;;;3.40;3.10;;;9.40;99.90;;;;;;5078993;28;20047;-78
2022/03/04 12:33:42;;;;;;;2.75;2.50;;;9.40;99.90;;;;;;5061188;28;20028;-78
2022/03/04 12:36:13;;;;;;;17.20;7.15;;;9.50;99.90;;;;;;5079517;28;20013;-77
2022/03/04 12:38:43;;;;;;;2.60;2.40;;;9.50;99.90;;;;;;5079312;28;20052;-77
2022/03/04 12:41:18;;;;;;;2.50;2.30;;;9.60;99.90;;;;;;5079555;28;20039;-77
2022/03/04 12:43:46;;;;;;;2.67;2.30;;;9.60;99.90;;;;;;5078552;28;20400;-78
2022/03/04 12:46:16;;;;;;;3.05;2.75;;;9.60;99.90;;;;;;5078730;28;20093;-77
2022/03/04 12:48:42;;;;;;;4.57;3.83;;;9.60;99.90;;;;;;5078317;28;20423;-77
2022/03/04 12:51:20;;;;;;;3.83;2.63;;;9.60;99.90;;;;;;5078494;28;20107;-78
2022/03/04 12:53:46;;;;;;;2.40;2.20;;;9.60;99.90;;;;;;5078867;28;20025;-77
2022/03/04 12:56:12;;;;;;;2.75;2.38;;;9.60;99.90;;;;;;5078981;28;20021;-78